createdAt,value
2023-08-17T00:02:18.025Z,99.90
2023-08-17T00:04:44.928Z,99.90
2023-08-17T00:07:12.372Z,99.90
2023-08-17T00:09:40.502Z,99.90
2023-08-17T00:12:08.025Z,99.90
2023-08-17T00:14:35.069Z,99.90
2023-08-17T00:17:02.039Z,99.90
2023-08-17T00:19:29.052Z,99.90
2023-08-17T00:21:56.557Z,99.90
2023-08-17T00:24:24.583Z,99.90
2023-08-17T00:26:51.528Z,99.90
2023-08-17T00:29:18.475Z,99.90
2023-08-17T00:31:45.467Z,99.90
2023-08-17T00:34:13.478Z,99.90
2023-08-17T00:36:40.379Z,99.90
2023-08-17T00:39:07.602Z,99.90
2023-08-17T00:41:34.609Z,99.90
2023-08-17T00:44:01.906Z,99.90
2023-08-17T00:46:29.842Z,99.90
2023-08-17T00:48:59.238Z,99.90
2023-08-17T00:51:27.214Z,99.90
2023-08-17T00:53:57.066Z,99.90
2023-08-17T00:56:24.186Z,99.90
2023-08-17T00:58:51.958Z,99.90
2023-08-17T01:01:20.924Z,99.90
2023-08-17T01:03:47.981Z,99.90
2023-08-17T01:06:16.861Z,99.90
2023-08-17T01:08:45.495Z,99.90
2023-08-17T01:11:26.389Z,99.90
2023-08-17T01:14:03.371Z,99.90
2023-08-17T01:16:54.195Z,99.90
2023-08-17T01:19:31.030Z,99.90
2023-08-17T01:22:09.553Z,99.90
2023-08-17T01:24:36.493Z,99.90
2023-08-17T01:27:03.514Z,99.90
2023-08-17T01:29:30.516Z,99.90
2023-08-17T01:32:19.070Z,99.90
2023-08-17T01:35:02.657Z,99.90
2023-08-17T01:37:32.624Z,99.90
2023-08-17T01:40:00.827Z,99.90
2023-08-17T01:42:28.364Z,99.90
2023-08-17T01:44:55.597Z,99.90
2023-08-17T01:47:23.689Z,99.90
2023-08-17T01:49:51.521Z,99.90
2023-08-17T01:52:18.436Z,99.90
2023-08-17T01:54:45.279Z,99.90
2023-08-17T01:57:13.346Z,99.90
2023-08-17T01:59:40.294Z,99.90
2023-08-17T02:02:07.345Z,99.90
2023-08-17T02:04:34.347Z,99.90
2023-08-17T02:07:01.231Z,99.90
2023-08-17T02:09:28.101Z,99.90
2023-08-17T02:11:54.952Z,99.90
2023-08-17T02:14:22.086Z,99.90
2023-08-17T02:16:50.164Z,99.90
2023-08-17T02:19:17.399Z,99.90
2023-08-17T02:21:44.455Z,99.90
2023-08-17T02:24:11.304Z,99.90
2023-08-17T02:26:39.503Z,99.90
2023-08-17T02:29:06.555Z,99.90
2023-08-17T02:31:33.581Z,99.90
2023-08-17T02:34:06.042Z,99.90
2023-08-17T02:36:34.478Z,99.90
2023-08-17T02:39:04.365Z,99.90
2023-08-17T02:41:33.141Z,99.90
2023-08-17T02:44:00.074Z,99.90
2023-08-17T02:46:26.963Z,99.90
2023-08-17T02:48:54.298Z,99.90
2023-08-17T02:51:21.340Z,99.90
2023-08-17T02:53:48.199Z,99.90
2023-08-17T02:56:15.243Z,99.90
2023-08-17T02:58:42.408Z,99.90
2023-08-17T03:01:09.730Z,99.90
2023-08-17T03:03:36.775Z,99.90
2023-08-17T03:06:04.353Z,99.90
2023-08-17T03:08:31.242Z,99.90
2023-08-17T03:10:58.199Z,99.90
2023-08-17T03:13:25.262Z,99.90
2023-08-17T03:15:52.176Z,99.90
2023-08-17T03:18:19.158Z,99.90
2023-08-17T03:20:47.173Z,99.90
2023-08-17T03:23:14.188Z,99.90
2023-08-17T03:25:41.465Z,99.90
2023-08-17T03:28:08.481Z,99.90
2023-08-17T03:30:35.822Z,99.90
2023-08-17T03:33:03.154Z,99.90
2023-08-17T03:35:32.344Z,99.90
2023-08-17T03:37:59.300Z,99.90
2023-08-17T03:40:27.424Z,99.90
2023-08-17T03:42:54.292Z,99.90
2023-08-17T03:45:21.549Z,99.90
2023-08-17T03:47:51.034Z,99.90
2023-08-17T03:50:18.020Z,99.90
2023-08-17T03:52:44.892Z,99.90
2023-08-17T03:55:11.968Z,99.90
2023-08-17T03:57:39.789Z,99.90
2023-08-17T04:00:08.255Z,99.90
2023-08-17T04:02:40.618Z,99.90
2023-08-17T04:05:08.545Z,99.90
2023-08-17T04:07:35.636Z,99.90
2023-08-17T04:10:06.421Z,99.90
2023-08-17T04:12:33.276Z,99.90
2023-08-17T04:15:00.276Z,99.90
2023-08-17T04:17:28.031Z,99.90
2023-08-17T04:19:55.410Z,99.90
2023-08-17T04:22:22.640Z,99.90
2023-08-17T04:24:49.632Z,99.90
2023-08-17T04:27:16.939Z,99.90
2023-08-17T04:29:45.151Z,99.90
2023-08-17T04:32:16.804Z,99.90
2023-08-17T04:34:46.131Z,99.90
2023-08-17T04:37:15.809Z,99.90
2023-08-17T04:39:44.479Z,99.90
2023-08-17T04:42:16.064Z,99.90
2023-08-17T04:44:42.938Z,99.90
2023-08-17T04:47:10.441Z,99.90
2023-08-17T04:49:37.433Z,99.90
2023-08-17T04:52:05.188Z,99.90
2023-08-17T04:54:32.109Z,99.90
2023-08-17T04:56:59.030Z,99.90
2023-08-17T04:59:26.023Z,99.90
2023-08-17T05:01:55.478Z,99.90
2023-08-17T05:04:22.475Z,99.90
2023-08-17T05:06:49.304Z,99.90
2023-08-17T05:09:16.189Z,99.90
2023-08-17T05:11:43.487Z,99.90
2023-08-17T05:14:11.646Z,99.90
2023-08-17T05:16:39.133Z,99.90
2023-08-17T05:19:06.240Z,99.90
2023-08-17T05:21:35.995Z,99.90
2023-08-17T05:24:03.994Z,99.90
2023-08-17T05:26:30.947Z,99.90
2023-08-17T05:28:57.830Z,99.90
2023-08-17T05:31:25.965Z,99.90
2023-08-17T05:33:53.941Z,99.90
2023-08-17T05:36:23.613Z,99.90
2023-08-17T05:38:50.581Z,99.90
2023-08-17T05:41:18.616Z,99.90
2023-08-17T05:43:45.633Z,99.90
2023-08-17T05:46:13.249Z,99.90
2023-08-17T05:48:40.669Z,99.90
2023-08-17T05:51:07.799Z,99.90
2023-08-17T05:53:34.739Z,99.90
2023-08-17T05:56:01.577Z,99.90
2023-08-17T05:58:28.542Z,99.90
2023-08-17T06:00:55.483Z,99.90
2023-08-17T06:03:22.580Z,99.90
2023-08-17T06:05:49.429Z,99.90
2023-08-17T06:08:16.342Z,99.90
2023-08-17T06:10:43.195Z,99.90
2023-08-17T06:13:10.319Z,99.90
2023-08-17T06:15:37.158Z,99.90
2023-08-17T06:18:04.282Z,99.90
2023-08-17T06:20:31.462Z,99.90
2023-08-17T06:22:59.408Z,99.90
2023-08-17T06:25:27.730Z,99.90
2023-08-17T06:27:54.608Z,99.90
2023-08-17T06:30:21.530Z,99.90
2023-08-17T06:32:48.481Z,99.90
2023-08-17T06:35:15.418Z,99.90
2023-08-17T06:37:42.472Z,99.90
2023-08-17T06:40:12.589Z,99.90
2023-08-17T06:42:39.480Z,99.90
2023-08-17T06:45:07.119Z,99.90
2023-08-17T06:47:34.052Z,99.90
2023-08-17T06:50:00.934Z,99.90
2023-08-17T06:52:27.906Z,99.90
2023-08-17T06:54:54.831Z,99.90
2023-08-17T06:57:22.870Z,99.90
2023-08-17T06:59:49.965Z,99.90
2023-08-17T07:02:17.056Z,99.90
2023-08-17T07:04:44.052Z,99.90
2023-08-17T07:07:11.043Z,99.90
2023-08-17T07:09:37.957Z,99.90
2023-08-17T07:12:05.118Z,99.90
2023-08-17T07:14:31.998Z,99.90
2023-08-17T07:16:58.846Z,99.90
2023-08-17T07:19:36.052Z,99.90
2023-08-17T07:22:12.920Z,99.90
2023-08-17T07:24:39.742Z,99.90
2023-08-17T07:27:06.653Z,99.90
2023-08-17T07:29:33.673Z,99.90
2023-08-17T07:32:03.052Z,99.90
2023-08-17T07:34:32.143Z,99.90
2023-08-17T07:36:59.385Z,99.90
2023-08-17T07:39:26.429Z,99.90
2023-08-17T07:41:53.332Z,99.90
2023-08-17T07:44:20.228Z,99.90
2023-08-17T07:46:50.427Z,99.90
2023-08-17T07:49:30.699Z,99.90
2023-08-17T07:52:00.628Z,99.90
2023-08-17T07:54:27.697Z,99.90
2023-08-17T07:56:54.601Z,99.90
2023-08-17T07:59:21.540Z,99.90
2023-08-17T08:01:48.486Z,99.90
2023-08-17T08:04:15.518Z,99.90
2023-08-17T08:06:42.901Z,99.90
2023-08-17T08:09:09.876Z,99.90
2023-08-17T08:11:36.762Z,99.90
2023-08-17T08:14:03.828Z,99.90
2023-08-17T08:16:33.476Z,99.90
2023-08-17T08:19:00.436Z,99.90
2023-08-17T08:21:28.877Z,99.90
2023-08-17T08:23:55.809Z,99.90
2023-08-17T08:26:23.145Z,99.90
2023-08-17T08:28:50.236Z,99.90
2023-08-17T08:31:17.298Z,99.90
2023-08-17T08:33:44.951Z,99.90
2023-08-17T08:36:12.117Z,99.90
2023-08-17T08:38:39.071Z,99.90
2023-08-17T08:41:09.565Z,99.90
2023-08-17T08:43:36.896Z,99.90
2023-08-17T08:46:04.909Z,99.90
2023-08-17T08:48:32.999Z,99.90
2023-08-17T08:51:01.931Z,99.90
2023-08-17T08:53:52.126Z,99.90
2023-08-17T08:56:21.761Z,99.90
2023-08-17T08:58:54.692Z,99.90
2023-08-17T09:01:22.736Z,99.90
2023-08-17T09:03:51.320Z,99.90
2023-08-17T09:06:20.522Z,99.90
2023-08-17T09:08:49.300Z,99.90
2023-08-17T09:11:17.092Z,99.90
2023-08-17T09:13:44.040Z,99.90
2023-08-17T09:16:11.031Z,99.90
2023-08-17T09:18:39.452Z,99.90
2023-08-17T09:21:06.561Z,99.90
2023-08-17T09:23:36.172Z,99.90
2023-08-17T09:26:09.870Z,99.90
2023-08-17T09:28:40.345Z,99.90
2023-08-17T09:31:07.324Z,99.90
2023-08-17T09:33:34.389Z,99.90
2023-08-17T09:36:01.703Z,99.90
2023-08-17T09:38:29.575Z,99.90
2023-08-17T09:40:58.035Z,99.90
2023-08-17T09:43:30.220Z,99.90
2023-08-17T09:45:58.395Z,99.90
2023-08-17T09:48:26.330Z,99.90
2023-08-17T09:50:53.284Z,99.90
2023-08-17T09:53:20.707Z,99.90
2023-08-17T09:55:48.127Z,99.90
2023-08-17T09:58:18.768Z,99.90
2023-08-17T10:00:51.831Z,99.90
2023-08-17T10:03:21.219Z,99.90
2023-08-17T10:06:04.894Z,99.90
2023-08-17T10:08:34.504Z,99.90
2023-08-17T10:11:03.839Z,99.90
2023-08-17T10:13:43.456Z,99.90
2023-08-17T10:16:16.191Z,99.90
2023-08-17T10:18:57.320Z,99.90
2023-08-17T10:21:30.280Z,99.90
2023-08-17T10:23:58.268Z,99.90
2023-08-17T10:26:28.841Z,99.90
2023-08-17T10:29:00.264Z,99.90
2023-08-17T10:31:30.187Z,99.70
2023-08-17T10:33:58.944Z,99.90
2023-08-17T10:36:26.822Z,99.90
2023-08-17T10:39:20.341Z,99.70
2023-08-17T10:41:49.228Z,99.90
2023-08-17T10:44:17.239Z,98.70
2023-08-17T10:46:46.695Z,98.00
2023-08-17T10:49:27.077Z,97.70
2023-08-17T10:52:09.188Z,98.00
2023-08-17T10:54:40.108Z,95.80
2023-08-17T10:57:28.792Z,96.70
2023-08-17T11:00:20.735Z,96.70
2023-08-17T11:03:01.757Z,96.40
2023-08-17T11:05:54.413Z,94.80
2023-08-17T11:11:13.948Z,93.90
2023-08-17T11:13:42.476Z,94.70
2023-08-17T11:16:11.369Z,93.40
2023-08-17T11:18:39.033Z,92.80
2023-08-17T11:21:10.478Z,92.60
2023-08-17T11:23:38.300Z,93.90
2023-08-17T11:26:06.042Z,92.40
2023-08-17T11:28:42.555Z,91.80
2023-08-17T11:31:11.803Z,92.10
2023-08-17T11:33:40.448Z,90.20
2023-08-17T11:36:09.147Z,89.60
2023-08-17T11:38:44.844Z,88.90
2023-08-17T11:43:44.444Z,84.90
2023-08-17T11:46:12.727Z,84.30
2023-08-17T11:48:39.707Z,85.40
2023-08-17T11:51:06.942Z,84.40
2023-08-17T11:53:39.910Z,85.10
2023-08-17T11:56:09.956Z,81.80
2023-08-17T11:58:57.972Z,75.90
2023-08-17T12:01:25.322Z,67.80
2023-08-17T12:03:52.321Z,66.70
2023-08-17T12:06:19.310Z,63.10
2023-08-17T12:08:48.617Z,59.50
2023-08-17T12:11:19.125Z,58.00
2023-08-17T12:13:53.806Z,59.30
2023-08-17T12:16:21.741Z,59.10
2023-08-17T12:18:53.069Z,60.10
2023-08-17T12:21:24.313Z,59.60
2023-08-17T12:23:51.864Z,59.00
2023-08-17T12:26:25.078Z,59.70
2023-08-17T12:28:52.049Z,59.60
2023-08-17T12:31:24.505Z,61.70
2023-08-17T12:33:52.634Z,60.40
2023-08-17T12:36:21.513Z,58.90
2023-08-17T12:38:49.278Z,59.20
2023-08-17T12:41:16.663Z,59.70
2023-08-17T12:43:43.559Z,58.50
2023-08-17T12:46:12.014Z,58.80
2023-08-17T12:48:39.951Z,58.10
2023-08-17T12:51:07.025Z,57.80
2023-08-17T12:53:33.966Z,58.10
2023-08-17T12:56:01.009Z,58.10
2023-08-17T12:58:27.963Z,58.90
2023-08-17T13:00:55.907Z,59.20
2023-08-17T13:03:23.047Z,59.60
2023-08-17T13:05:50.176Z,61.10
2023-08-17T13:08:17.211Z,62.20
2023-08-17T13:10:44.260Z,62.60
2023-08-17T13:13:11.169Z,63.90
2023-08-17T13:15:38.530Z,63.70
2023-08-17T13:18:06.040Z,64.30
2023-08-17T13:20:33.018Z,65.00
2023-08-17T13:22:59.962Z,65.50
2023-08-17T13:25:26.849Z,63.80
2023-08-17T13:27:53.713Z,63.40
2023-08-17T13:30:20.597Z,64.20
2023-08-17T13:32:47.726Z,66.30
2023-08-17T13:35:15.404Z,64.60
2023-08-17T13:37:42.598Z,64.00
2023-08-17T13:40:09.993Z,63.50
2023-08-17T13:42:37.838Z,64.00
2023-08-17T13:45:05.162Z,62.30
2023-08-17T13:47:32.110Z,64.10
2023-08-17T13:49:59.463Z,63.10
2023-08-17T13:52:26.860Z,62.80
2023-08-17T13:54:54.148Z,61.10
2023-08-17T13:57:21.078Z,61.20
2023-08-17T13:59:48.070Z,60.30
2023-08-17T14:02:15.028Z,59.40
2023-08-17T14:04:41.943Z,61.10
2023-08-17T14:07:08.800Z,61.10
2023-08-17T14:09:35.813Z,60.10
2023-08-17T14:12:02.895Z,59.80
2023-08-17T14:14:29.865Z,61.50
2023-08-17T14:16:57.998Z,59.70
2023-08-17T14:19:24.981Z,59.80
2023-08-17T14:21:52.442Z,59.70
2023-08-17T14:24:19.354Z,60.80
2023-08-17T14:26:46.259Z,61.70
2023-08-17T14:29:13.191Z,63.20
2023-08-17T14:31:40.260Z,63.10
2023-08-17T14:34:07.350Z,64.30
2023-08-17T14:36:34.502Z,64.50
2023-08-17T14:39:01.397Z,64.80
2023-08-17T14:41:33.126Z,64.40
2023-08-17T14:44:02.591Z,64.50
2023-08-17T14:46:30.205Z,65.40
2023-08-17T14:48:57.263Z,66.60
2023-08-17T14:51:31.080Z,66.40
2023-08-17T14:53:58.616Z,66.50
2023-08-17T14:56:25.693Z,67.30
2023-08-17T14:58:52.605Z,67.50
2023-08-17T15:01:19.714Z,68.50
2023-08-17T15:03:48.181Z,68.40
2023-08-17T15:06:28.512Z,68.00
2023-08-17T15:09:00.501Z,68.40
2023-08-17T15:11:29.880Z,68.50
2023-08-17T15:13:56.669Z,67.50
2023-08-17T15:16:28.271Z,67.80
2023-08-17T15:18:55.759Z,67.00
2023-08-17T15:21:22.994Z,66.40
2023-08-17T15:23:50.012Z,66.40
2023-08-17T15:26:16.894Z,66.00
2023-08-17T15:28:43.859Z,65.60
2023-08-17T15:31:14.098Z,67.20
2023-08-17T15:33:41.545Z,67.10
2023-08-17T15:36:08.620Z,67.90
2023-08-17T15:38:35.631Z,68.50
2023-08-17T15:41:02.582Z,70.40
2023-08-17T15:43:29.505Z,73.70
2023-08-17T15:45:56.438Z,73.90
2023-08-17T15:48:23.446Z,74.60
2023-08-17T15:50:50.417Z,73.90
2023-08-17T15:53:17.345Z,74.20
2023-08-17T15:55:44.342Z,75.90
2023-08-17T15:58:11.375Z,77.10
2023-08-17T16:00:38.614Z,77.20
2023-08-17T16:03:05.907Z,77.30
2023-08-17T16:05:32.793Z,76.30
2023-08-17T16:08:00.452Z,76.20
2023-08-17T16:10:28.066Z,76.40
2023-08-17T16:12:54.951Z,76.40
2023-08-17T16:15:21.900Z,76.70
2023-08-17T16:17:48.715Z,77.30
2023-08-17T16:20:15.722Z,78.10
2023-08-17T16:22:44.203Z,78.70
2023-08-17T16:25:11.173Z,79.40
2023-08-17T16:27:39.146Z,79.00
2023-08-17T16:30:07.314Z,79.60
2023-08-17T16:32:34.172Z,80.30
2023-08-17T16:35:01.053Z,81.10
2023-08-17T16:37:28.242Z,81.50
2023-08-17T16:39:55.418Z,81.60
2023-08-17T16:42:22.263Z,80.90
2023-08-17T16:44:49.199Z,80.10
2023-08-17T16:47:19.713Z,80.10
2023-08-17T16:49:48.731Z,80.80
2023-08-17T16:52:18.722Z,82.20
2023-08-17T16:54:48.122Z,81.60
2023-08-17T16:57:15.768Z,81.60
2023-08-17T16:59:42.650Z,80.90
2023-08-17T17:02:14.371Z,81.10
2023-08-17T17:04:43.086Z,81.80
2023-08-17T17:07:10.142Z,82.80
2023-08-17T17:09:37.079Z,82.90
2023-08-17T17:12:07.138Z,84.90
2023-08-17T17:14:34.057Z,85.90
2023-08-17T17:17:00.940Z,86.90
2023-08-17T17:19:27.924Z,87.70
2023-08-17T17:21:55.394Z,88.30
2023-08-17T17:24:22.336Z,88.90
2023-08-17T17:26:51.364Z,89.70
2023-08-17T17:29:18.284Z,89.80
2023-08-17T17:31:45.159Z,89.80
2023-08-17T17:34:12.109Z,90.10
2023-08-17T17:36:39.051Z,89.90
2023-08-17T17:39:06.367Z,90.10
2023-08-17T17:41:33.367Z,90.00
2023-08-17T17:44:00.177Z,90.40
2023-08-17T17:46:27.197Z,90.70
2023-08-17T17:48:54.146Z,90.70
2023-08-17T17:51:22.182Z,90.70
2023-08-17T17:53:49.067Z,90.80
2023-08-17T17:56:16.030Z,91.00
2023-08-17T17:58:42.912Z,91.00
2023-08-17T18:01:10.021Z,91.20
2023-08-17T18:03:37.779Z,91.10
2023-08-17T18:06:04.880Z,91.20
2023-08-17T18:08:33.215Z,91.20
2023-08-17T18:11:00.164Z,91.30
2023-08-17T18:13:27.082Z,91.50
2023-08-17T18:15:53.941Z,92.30
2023-08-17T18:18:20.829Z,92.20
2023-08-17T18:20:47.684Z,92.50
2023-08-17T18:23:15.767Z,93.30
2023-08-17T18:25:46.317Z,93.80
2023-08-17T18:28:13.438Z,93.50
2023-08-17T18:30:40.433Z,93.50
2023-08-17T18:33:07.560Z,93.40
2023-08-17T18:35:34.599Z,93.40
2023-08-17T18:38:01.497Z,93.10
2023-08-17T18:40:28.448Z,92.70
2023-08-17T18:42:55.363Z,92.70
2023-08-17T18:45:23.492Z,92.60
2023-08-17T18:47:50.555Z,92.50
2023-08-17T18:50:17.478Z,92.60
2023-08-17T18:52:44.607Z,93.10
2023-08-17T18:55:14.205Z,93.20
2023-08-17T18:57:41.435Z,93.60
2023-08-17T19:00:12.214Z,93.80
2023-08-17T19:02:40.533Z,94.00
2023-08-17T19:05:10.805Z,94.30
2023-08-17T19:07:37.831Z,94.20
2023-08-17T19:10:05.345Z,94.00
2023-08-17T19:12:32.219Z,94.10
2023-08-17T19:14:59.081Z,94.10
2023-08-17T19:17:26.185Z,94.20
2023-08-17T19:19:53.309Z,94.20
2023-08-17T19:22:20.466Z,94.30
2023-08-17T19:24:47.366Z,94.30
2023-08-17T19:27:14.399Z,94.30
2023-08-17T19:29:41.711Z,94.50
2023-08-17T19:32:08.659Z,94.50
2023-08-17T19:34:35.539Z,94.30
2023-08-17T19:37:03.661Z,94.00
2023-08-17T19:39:30.683Z,93.40
2023-08-17T19:41:57.587Z,93.00
2023-08-17T19:44:24.613Z,92.70
2023-08-17T19:46:51.506Z,92.60
2023-08-17T19:49:18.431Z,92.90
2023-08-17T19:51:46.857Z,93.20
2023-08-17T19:54:16.104Z,93.00
2023-08-17T19:56:43.086Z,93.00
2023-08-17T19:59:10.082Z,92.50
2023-08-17T20:01:37.981Z,92.40
2023-08-17T20:04:05.584Z,92.80
2023-08-17T20:06:32.544Z,91.50
2023-08-17T20:08:59.504Z,91.50
2023-08-17T20:11:27.939Z,92.00
2023-08-17T20:13:54.884Z,91.90
2023-08-17T20:16:21.950Z,91.20
2023-08-17T20:18:49.036Z,91.10
2023-08-17T20:21:16.380Z,91.00
2023-08-17T20:23:45.064Z,91.40
2023-08-17T20:26:12.665Z,91.40
2023-08-17T20:28:40.117Z,91.30
2023-08-17T20:31:07.401Z,91.40
2023-08-17T20:33:34.415Z,91.30
2023-08-17T20:36:01.285Z,91.20
2023-08-17T20:38:28.279Z,90.90
2023-08-17T20:40:55.695Z,91.30
2023-08-17T20:43:22.644Z,91.50
2023-08-17T20:45:50.320Z,91.50
2023-08-17T20:48:17.334Z,91.40
2023-08-17T20:50:48.435Z,91.80
2023-08-17T20:53:18.389Z,91.30
2023-08-17T20:55:45.893Z,90.20
2023-08-17T20:58:12.814Z,90.00
2023-08-17T21:00:39.763Z,90.10
2023-08-17T21:03:06.951Z,90.20
2023-08-17T21:05:34.425Z,90.20
2023-08-17T21:08:02.671Z,89.70
2023-08-17T21:10:30.138Z,88.90
2023-08-17T21:12:58.175Z,87.10
2023-08-17T21:15:25.368Z,89.90
2023-08-17T21:17:52.426Z,90.00
2023-08-17T21:20:19.891Z,90.30
2023-08-17T21:22:51.495Z,87.40
2023-08-17T21:25:21.147Z,87.40
2023-08-17T21:27:48.278Z,87.70
2023-08-17T21:30:16.755Z,89.00
2023-08-17T21:32:43.908Z,89.10
2023-08-17T21:35:12.704Z,89.30
2023-08-17T21:37:41.501Z,90.00
2023-08-17T21:40:08.907Z,87.70
2023-08-17T21:42:35.862Z,88.50
2023-08-17T21:45:02.985Z,88.90
2023-08-17T21:47:30.333Z,88.30
2023-08-17T21:49:57.449Z,87.40
2023-08-17T21:52:24.438Z,89.10
2023-08-17T21:54:51.703Z,89.60
2023-08-17T21:57:18.961Z,87.80
2023-08-17T21:59:46.008Z,88.60
2023-08-17T22:02:12.978Z,89.20
2023-08-17T22:04:40.057Z,89.40
2023-08-17T22:07:06.943Z,89.20
2023-08-17T22:09:36.640Z,90.00
2023-08-17T22:12:03.728Z,90.50
2023-08-17T22:14:30.842Z,90.50
2023-08-17T22:16:58.277Z,90.40
2023-08-17T22:19:25.435Z,90.60
2023-08-17T22:21:52.643Z,91.10
2023-08-17T22:24:20.089Z,91.10
2023-08-17T22:26:47.218Z,91.00
2023-08-17T22:29:14.115Z,91.00
2023-08-17T22:31:43.662Z,91.00
2023-08-17T22:34:11.607Z,91.20
2023-08-17T22:36:38.705Z,91.00
2023-08-17T22:39:06.773Z,91.70
2023-08-17T22:41:34.363Z,91.50
2023-08-17T22:44:01.491Z,91.20
2023-08-17T22:46:28.521Z,91.20
2023-08-17T22:48:55.490Z,91.20
2023-08-17T22:51:23.448Z,91.80
2023-08-17T22:53:50.464Z,91.70
2023-08-17T22:56:17.413Z,91.40
2023-08-17T22:58:44.517Z,91.60
2023-08-17T23:01:11.757Z,92.20
2023-08-17T23:03:38.790Z,92.50
2023-08-17T23:06:05.895Z,93.40
2023-08-17T23:08:32.790Z,93.80
2023-08-17T23:11:03.510Z,94.30
2023-08-17T23:13:30.544Z,94.10
2023-08-17T23:15:57.459Z,94.30
2023-08-17T23:18:24.713Z,94.40
2023-08-17T23:20:51.575Z,94.20
2023-08-17T23:23:18.804Z,93.70
2023-08-17T23:25:45.863Z,93.50
2023-08-17T23:28:13.024Z,93.20
2023-08-17T23:30:41.310Z,93.30
2023-08-17T23:33:10.317Z,93.30
2023-08-17T23:35:39.844Z,93.30
2023-08-17T23:38:08.178Z,93.60
2023-08-17T23:40:35.268Z,93.60
2023-08-17T23:43:02.600Z,93.60
2023-08-17T23:45:29.877Z,94.00
2023-08-17T23:47:56.886Z,94.40
2023-08-17T23:50:23.946Z,94.50
2023-08-17T23:52:50.977Z,94.70
2023-08-17T23:55:18.373Z,94.90
2023-08-17T23:57:45.357Z,95.00
